Time;durP1;ratioP1;P1;durP2;ratioP2;P2;SDS_P1;SDS_P2;PMS_P1;PMS_P2;Temp;Humidity;BMP_temperature;BMP_pressure;BME280_temperature;BME280_humidity;BME280_pressure;Samples;Min_cycle;Max_cycle;Signal;HPM_P1;HPM_P2
2022/05/14 00:03:46;;;;;;;3.40;0.93;;;;;;;13.44;61.18;100200.88;12203203;19;20015;-81
2022/05/14 00:07:50;;;;;;;3.70;1.25;;;;;;;13.38;61.39;100215.78;12211923;19;20830;-81
2022/05/14 00:16:13;;;;;;;2.67;1.10;;;;;;;13.30;62.06;100208.78;12201826;19;20034;-81
2022/05/14 00:20:15;;;;;;;3.53;1.00;;;;;;;13.28;62.49;100202.66;12184353;19;20002;-81
2022/05/14 00:24:17;;;;;;;3.63;1.20;;;;;;;13.23;63.22;100200.63;12213004;19;20405;-81
2022/05/14 00:28:20;;;;;;;4.20;0.95;;;;;;;13.20;63.48;100205.84;12203702;19;20010;-81
2022/05/14 00:32:22;;;;;;;4.38;1.13;;;;;;;13.18;63.31;100206.09;12186348;19;20920;-81
2022/05/14 00:36:24;;;;;;;5.15;1.20;;;;;;;13.15;63.44;100212.16;12205229;19;20062;-81
2022/05/14 00:40:30;;;;;;;3.72;0.95;;;;;;;13.15;64.17;100212.16;12210707;19;20038;-81
2022/05/14 00:44:32;;;;;;;6.50;1.35;;;;;;;13.10;65.01;100202.94;12185332;19;20495;-82
2022/05/14 00:48:39;;;;;;;1.70;0.80;;;;;;;13.06;65.06;100218.38;12202435;19;20015;-82
2022/05/14 00:52:41;;;;;;;1.63;0.80;;;;;;;13.02;64.85;100223.59;12206381;19;20628;-82
2022/05/14 00:56:50;;;;;;;2.75;1.35;;;;;;;12.97;65.67;100223.53;12178781;19;20311;-82
2022/05/14 01:00:51;;;;;;;4.55;1.63;;;;;;;12.89;66.17;100223.97;12207362;19;20470;-82
2022/05/14 01:04:53;;;;;;;2.92;1.52;;;;;;;12.84;66.52;100226.66;12206570;19;20572;-82
2022/05/14 01:08:59;;;;;;;4.82;1.35;;;;;;;12.78;66.60;100225.75;12184264;19;20021;-82
2022/05/14 01:13:01;;;;;;;4.13;1.17;;;;;;;12.72;66.86;100221.22;12201997;19;20467;-82
2022/05/14 01:17:05;;;;;;;5.70;1.40;;;;;;;12.59;68.33;100221.59;12178681;19;20351;-81
2022/05/14 01:21:51;;;;;;;3.20;1.10;;;;;;;12.57;68.30;100213.53;12197107;19;20764;-81
2022/05/14 01:26:51;;;;;;;3.90;1.20;;;;;;;12.50;67.90;100210.13;12198262;19;20033;-81
2022/05/14 01:30:57;;;;;;;4.30;1.75;;;;;;;12.43;67.81;100209.44;12107473;19;2004467;-81
2022/05/14 01:35:00;;;;;;;3.30;1.23;;;;;;;12.37;67.80;100213.22;12194819;19;20034;-81
2022/05/14 01:39:05;;;;;;;3.72;1.30;;;;;;;12.32;68.32;100214.81;12188824;19;20514;-82
2022/05/14 01:43:07;;;;;;;2.65;1.40;;;;;;;12.26;68.58;100209.47;12204386;19;20018;-81
2022/05/14 01:47:10;;;;;;;3.20;1.70;;;;;;;12.22;69.00;100203.59;12178335;19;20360;-82
2022/05/14 01:51:13;;;;;;;5.63;1.48;;;;;;;12.17;69.03;100210.97;12210529;19;20092;-82
2022/05/14 01:55:14;;;;;;;6.85;1.52;;;;;;;12.11;69.19;100215.59;12204676;19;20010;-82
2022/05/14 01:59:18;;;;;;;5.65;2.10;;;;;;;12.06;69.89;100209.97;12179292;19;20026;-82
2022/05/14 02:03:21;;;;;;;2.13;1.20;;;;;;;12.01;70.61;100207.94;12207346;19;20082;-82
2022/05/14 02:07:23;;;;;;;4.67;1.30;;;;;;;11.99;71.14;100210.13;12197195;19;20487;-82
2022/05/14 02:11:26;;;;;;;4.93;1.40;;;;;;;11.96;70.73;100210.63;12184474;19;20011;-83
2022/05/14 02:15:37;;;;;;;5.50;1.50;;;;;;;11.87;72.37;100212.13;12193821;19;20340;-83
2022/05/14 02:19:39;;;;;;;4.03;1.42;;;;;;;11.82;72.32;100210.06;12200280;19;20480;-82
2022/05/14 02:23:42;;;;;;;4.07;1.17;;;;;;;11.82;72.02;100206.47;12177131;19;20021;-81
2022/05/14 02:27:43;;;;;;;4.25;1.20;;;;;;;11.76;72.43;100211.06;12199633;19;20011;-82
2022/05/14 02:31:48;;;;;;;8.73;2.03;;;;;;;11.71;73.10;100205.44;12201816;19;20025;-81
2022/05/14 02:35:50;;;;;;;3.60;1.52;;;;;;;11.71;72.44;100201.84;12174659;19;21968;-82
2022/05/14 02:39:53;;;;;;;3.53;1.50;;;;;;;11.66;72.98;100213.63;12204176;19;20074;-81
2022/05/14 02:43:55;;;;;;;5.00;1.17;;;;;;;11.63;73.24;100214.13;12206555;19;20006;-82
2022/05/14 02:47:57;;;;;;;2.03;1.10;;;;;;;11.60;72.98;100217.34;12173660;19;20017;-81
2022/05/14 02:51:59;;;;;;;4.23;1.50;;;;;;;11.52;74.35;100215.03;12198047;19;20007;-81
2022/05/14 02:56:00;;;;;;;8.35;2.53;;;;;;;11.48;73.76;100220.19;12192256;19;20002;-81
2022/05/14 03:00:07;;;;;;;2.38;1.33;;;;;;;11.44;73.77;100230.03;12198981;19;20034;-81
2022/05/14 03:04:08;;;;;;;3.88;1.60;;;;;;;11.40;73.77;100229.69;12193105;19;20003;-81
2022/05/14 03:08:10;;;;;;;7.53;1.55;;;;;;;11.36;73.85;100234.03;12172699;19;20061;-81
2022/05/14 03:12:14;;;;;;;3.17;1.33;;;;;;;11.33;74.05;100228.13;12204273;19;20032;-81
2022/05/14 03:16:20;;;;;;;3.60;1.15;;;;;;;11.29;74.11;100225.03;12188620;19;20062;-81
2022/05/14 03:20:23;;;;;;;4.50;1.75;;;;;;;11.27;74.55;100224.44;12172401;19;20096;-82
2022/05/14 03:24:25;;;;;;;2.35;1.33;;;;;;;11.25;74.91;100229.38;12182351;19;20011;-81
2022/05/14 03:28:26;;;;;;;3.20;1.50;;;;;;;11.24;75.05;100227.69;12193163;19;20013;-80
2022/05/14 03:32:28;;;;;;;4.00;1.45;;;;;;;11.23;75.07;100225.19;12170664;19;20119;-82
2022/05/14 03:36:30;;;;;;;3.45;1.42;;;;;;;11.21;75.59;100233.69;12184819;19;20087;-82
2022/05/14 03:40:33;;;;;;;6.60;2.03;;;;;;;11.21;75.86;100235.63;12202181;19;20028;-82
2022/05/14 03:44:34;;;;;;;6.82;2.00;;;;;;;11.20;75.88;100236.72;12183150;19;20006;-81
2022/05/14 03:48:37;;;;;;;2.95;1.40;;;;;;;11.18;75.84;100231.41;12210213;19;20002;-82
2022/05/14 03:52:40;;;;;;;3.38;1.45;;;;;;;11.16;75.92;100228.09;12200602;19;20007;-82
2022/05/14 03:56:42;;;;;;;;;;;;;;;11.15;76.50;100235.53;12190567;19;20078;-82
2022/05/14 04:00:43;;;;;;;4.40;1.40;;;;;;;11.13;76.00;100237.69;12203338;19;19907;-82
2022/05/14 04:04:45;;;;;;;3.22;1.30;;;;;;;11.14;76.13;100233.84;12197611;19;20722;-81
2022/05/14 04:08:53;;;;;;;6.00;1.42;;;;;;;11.14;76.31;100235.75;12187247;19;20024;-81
2022/05/14 04:12:54;;;;;;;3.30;1.52;;;;;;;11.15;76.83;100238.28;12204137;19;20018;-81
2022/05/14 04:16:58;;;;;;;3.55;1.63;;;;;;;11.17;76.44;100244.38;12195736;19;20066;-81
2022/05/14 04:21:01;;;;;;;4.90;1.55;;;;;;;11.20;76.66;100242.22;12181073;19;20014;-81
2022/05/14 04:25:05;;;;;;;5.55;1.67;;;;;;;11.21;76.69;100239.22;12201155;19;20066;-81
2022/05/14 04:29:08;;;;;;;5.57;1.67;;;;;;;11.23;77.53;100252.78;12183437;19;20010;-80
2022/05/14 04:33:12;;;;;;;;;;;;;;;11.25;78.26;100251.44;12247827;19;20015;-80
2022/05/14 04:37:15;;;;;;;6.28;1.27;;;;;;;11.28;77.75;100248.22;12236762;19;19926;-79
2022/05/14 04:41:18;;;;;;;3.03;1.40;;;;;;;11.31;78.50;100249.63;12188194;19;20014;-82
2022/05/14 04:45:22;;;;;;;3.80;1.60;;;;;;;11.36;78.54;100255.25;12202210;19;20018;-83
2022/05/14 04:49:24;;;;;;;3.50;1.43;;;;;;;11.37;79.93;100263.28;12206839;19;20010;-82
2022/05/14 04:53:26;;;;;;;4.95;1.88;;;;;;;11.42;79.83;100259.78;12183236;19;20022;-83
2022/05/14 04:57:28;;;;;;;5.40;1.40;;;;;;;11.48;80.41;100263.50;12193971;19;20022;-82
2022/05/14 05:01:30;;;;;;;3.97;2.10;;;;;;;11.52;81.24;100267.44;12196912;19;20030;-83
2022/05/14 05:05:32;;;;;;;4.25;1.67;;;;;;;11.55;80.98;100267.78;12175518;19;20017;-84
2022/05/14 05:09:35;;;;;;;4.18;1.50;;;;;;;11.59;81.03;100268.13;12202830;19;20007;-83
2022/05/14 05:13:37;;;;;;;4.47;1.87;;;;;;;11.66;80.49;100270.75;12212044;19;20023;-82
2022/05/14 05:17:39;;;;;;;3.25;1.30;;;;;;;11.72;80.55;100284.44;12230690;19;20270;-82
2022/05/14 05:21:41;;;;;;;5.45;1.75;;;;;;;11.78;80.33;100277.91;12246383;19;20014;-81
2022/05/14 05:25:44;;;;;;;6.32;1.90;;;;;;;11.84;80.16;100284.38;12261362;19;20031;-81
2022/05/14 05:29:46;;;;;;;;;;;;;;;11.89;80.35;100280.91;12231520;19;19999;-83
2022/05/14 05:33:47;;;;;;;5.07;1.48;;;;;;;11.94;79.45;100290.13;12251801;19;19917;-82
2022/05/14 05:37:49;;;;;;;3.10;1.60;;;;;;;12.02;80.00;100280.59;12251033;19;19995;-82
2022/05/14 05:41:51;;;;;;;4.35;1.70;;;;;;;12.08;79.77;100285.97;12221184;19;20027;-83
2022/05/14 05:45:53;;;;;;;3.60;1.23;;;;;;;12.16;79.36;100293.00;12246791;19;20010;-82
2022/05/14 05:49:55;;;;;;;5.72;3.03;;;;;;;12.26;78.85;100292.38;12244284;19;20015;-84
2022/05/14 05:58:20;;;;;;;8.70;1.77;;;;;;;12.52;78.23;100296.38;12203566;19;20003;-83
2022/05/14 06:02:22;;;;;;;5.75;1.60;;;;;;;12.62;78.63;100299.34;12187862;19;20015;-82
2022/05/14 06:06:25;;;;;;;4.65;1.77;;;;;;;12.73;78.51;100303.09;12214254;19;20007;-83
2022/05/14 06:10:27;;;;;;;5.57;1.60;;;;;;;12.84;78.52;100299.41;12203942;19;20010;-83
2022/05/14 06:14:28;;;;;;;7.13;1.97;;;;;;;12.96;77.88;100302.91;12181437;19;20006;-83
2022/05/14 06:18:30;;;;;;;3.00;1.75;;;;;;;13.10;76.69;100303.38;12210820;19;20006;-84
2022/05/14 06:22:32;;;;;;;4.03;1.63;;;;;;;13.25;76.14;100301.94;12214673;19;20010;-83
2022/05/14 06:26:34;;;;;;;4.53;2.15;;;;;;;13.42;75.91;100311.06;12191560;19;20019;-83
2022/05/14 06:30:41;;;;;;;7.17;1.93;;;;;;;13.58;75.46;100304.63;12208928;19;20007;-83
2022/05/14 06:34:47;;;;;;;4.47;1.70;;;;;;;13.80;74.63;100312.94;12210373;19;20075;-83
2022/05/14 06:38:48;;;;;;;4.50;1.70;;;;;;;14.01;73.72;100321.44;12189290;19;20029;-82
2022/05/14 06:42:50;;;;;;;4.57;1.90;;;;;;;14.20;72.41;100325.56;12192427;19;20077;-82
2022/05/14 06:46:52;;;;;;;3.20;1.73;;;;;;;14.42;71.41;100335.75;12206803;19;20041;-83
2022/05/14 06:50:56;;;;;;;9.10;2.75;;;;;;;14.65;70.81;100329.06;12175360;19;20083;-83
2022/05/14 06:54:59;;;;;;;5.60;2.17;;;;;;;14.89;70.04;100323.97;12198604;19;20002;-82
2022/05/14 06:59:01;;;;;;;4.78;1.98;;;;;;;15.15;69.67;100327.78;12190241;19;20014;-82
2022/05/14 07:07:24;;;;;;;9.02;2.20;;;;;;;15.58;67.62;100336.88;12189885;19;20610;-81
2022/05/14 07:11:25;;;;;;;4.82;1.92;;;;;;;15.84;67.08;100333.16;12183489;19;20021;-83
2022/05/14 07:15:27;;;;;;;7.75;2.20;;;;;;;16.09;65.74;100337.13;12188660;19;20366;-83
2022/05/14 07:19:29;;;;;;;7.07;2.05;;;;;;;16.35;64.63;100332.47;12209783;19;20017;-82
2022/05/14 07:23:31;;;;;;;5.38;2.20;;;;;;;16.55;63.76;100340.00;12196540;19;20007;-84
2022/05/14 07:27:33;;;;;;;7.53;1.90;;;;;;;16.75;62.48;100337.25;12227851;19;20051;-83
2022/05/14 07:31:36;;;;;;;4.03;1.87;;;;;;;16.96;61.67;100340.88;12233611;19;20014;-86
2022/05/14 07:35:38;;;;;;;5.95;2.13;;;;;;;17.18;60.20;100332.22;12220632;19;20010;-82
2022/05/14 07:39:54;;;;;;;4.60;1.80;;;;;;;17.44;59.63;100332.16;12217807;19;20015;-81
2022/05/14 07:44:01;;;;;;;9.00;2.22;;;;;;;17.69;58.71;100332.06;12212041;19;20656;-81
2022/05/14 07:48:07;;;;;;;4.13;1.77;;;;;;;17.83;56.56;100326.75;12188078;19;20015;-82
2022/05/14 07:52:09;;;;;;;8.90;1.98;;;;;;;18.12;56.11;100326.91;12216312;19;20011;-82
2022/05/14 07:56:10;;;;;;;7.57;2.13;;;;;;;18.37;55.93;100322.28;12181889;19;20010;-82
2022/05/14 08:00:12;;;;;;;7.85;3.63;;;;;;;18.62;55.54;100326.81;12209921;19;20022;-82
2022/05/14 08:04:14;;;;;;;10.40;2.20;;;;;;;18.86;54.59;100315.78;12218661;19;20471;-81
2022/05/14 08:08:16;;;;;;;5.75;1.85;;;;;;;19.02;51.87;100322.88;12200694;19;20014;-82
2022/05/14 08:12:18;;;;;;;9.90;2.22;;;;;;;19.30;51.67;100321.22;12219053;19;20007;-82
2022/05/14 08:16:22;;;;;;;8.95;2.92;;;;;;;19.52;50.66;100317.91;12218314;19;20070;-83
2022/05/14 08:20:24;;;;;;;5.85;2.20;;;;;;;19.70;50.30;100313.53;12187275;19;20042;-81
2022/05/14 08:24:34;;;;;;;6.47;2.00;;;;;;;19.83;50.11;100317.53;12206775;19;20024;-83
2022/05/14 08:28:36;;;;;;;5.40;2.42;;;;;;;19.82;48.83;100315.91;12206795;19;20089;-81
2022/05/14 08:32:37;;;;;;;7.30;2.72;;;;;;;19.87;48.96;100315.84;12190118;19;20125;-82
2022/05/14 08:36:42;;;;;;;6.97;1.80;;;;;;;19.96;47.73;100321.59;12205194;19;20010;-81
2022/05/14 08:40:56;;;;;;;5.22;2.25;;;;;;;19.74;47.89;100316.56;12198199;19;20019;-80
2022/05/14 08:44:58;;;;;;;8.10;2.30;;;;;;;20.06;47.99;100312.22;12189268;19;20002;-82
2022/05/14 08:49:06;;;;;;;12.32;2.90;;;;;;;20.27;45.99;100313.59;12199698;19;20033;-80
2022/05/14 08:53:12;;;;;;;9.40;2.55;;;;;;;20.59;46.65;100298.84;12189602;19;20120;-80
2022/05/14 08:57:52;;;;;;;4.35;1.70;;;;;;;20.78;45.45;100289.59;12205133;19;20536;-79
2022/05/14 09:02:00;;;;;;;6.20;1.80;;;;;;;21.12;45.27;100297.66;12196236;19;20006;-79
2022/05/14 09:06:06;;;;;;;5.63;1.57;;;;;;;21.25;44.70;100294.03;12185961;19;20085;-80
2022/05/14 09:10:20;;;;;;;6.55;2.20;;;;;;;21.42;44.11;100292.63;12200565;19;20082;-80
2022/05/14 09:14:28;;;;;;;3.83;1.95;;;;;;;21.72;44.03;100294.81;12180937;19;20381;-79
2022/05/14 09:18:42;;;;;;;6.78;1.52;;;;;;;21.95;42.78;100306.09;12195973;19;22094;-81
2022/05/14 09:22:47;;;;;;;7.25;1.88;;;;;;;22.08;42.38;100294.03;12199192;19;20018;-80
2022/05/14 09:26:49;;;;;;;9.77;1.40;;;;;;;21.96;42.34;100299.38;12175585;19;20771;-80
2022/05/14 09:30:57;;;;;;;5.05;2.00;;;;;;;22.08;42.60;100299.66;12206382;19;20362;-80
2022/05/14 09:35:14;;;;;;;4.22;1.92;;;;;;;21.98;42.10;100294.25;12193327;19;20010;-80
2022/05/14 09:39:24;;;;;;;4.07;2.03;;;;;;;21.90;42.09;100290.22;12172388;19;20041;-80
2022/05/14 09:43:37;;;;;;;8.20;2.23;;;;;;;22.19;41.85;100284.28;12198491;19;20045;-80
2022/05/14 09:47:39;;;;;;;5.68;1.90;;;;;;;22.40;41.54;100284.63;12180966;19;20006;-79
2022/05/14 09:52:04;;;;;;;9.50;2.10;;;;;;;22.62;41.96;100278.19;12199376;19;20089;-80
2022/05/14 09:56:32;;;;;;;9.07;2.00;;;;;;;22.67;40.86;100280.88;12178648;19;20102;-78
2022/05/14 10:00:49;;;;;;;7.35;2.30;;;;;;;22.30;41.05;100277.25;12205848;19;20078;-81
2022/05/14 10:05:09;;;;;;;9.60;1.60;;;;;;;22.55;41.52;100275.00;12207968;19;20006;-81
2022/05/14 10:09:17;;;;;;;23.52;3.80;;;;;;;22.81;40.96;100275.16;12184944;19;20055;-81
2022/05/14 10:13:36;;;;;;;3.92;1.70;;;;;;;22.71;40.71;100273.44;12203184;19;20482;-81
2022/05/14 10:18:24;;;;;;;6.82;1.98;;;;;;;22.92;39.82;100267.31;12171584;19;20144;-82
2022/05/14 10:27:33;;;;;;;3.72;1.60;;;;;;;23.02;39.08;100269.88;12180821;19;20419;-81
2022/05/14 10:31:57;;;;;;;5.57;2.28;;;;;;;22.98;38.71;100271.66;12193711;19;20058;-80
2022/05/14 10:36:35;;;;;;;6.13;2.17;;;;;;;22.97;38.81;100261.59;12175271;19;20024;-80
2022/05/14 10:40:42;;;;;;;5.57;1.85;;;;;;;23.07;39.17;100254.84;12195543;19;20021;-83
2022/05/14 10:45:01;;;;;;;5.57;1.65;;;;;;;23.39;38.95;100268.56;12177094;19;20010;-80
2022/05/14 10:49:29;;;;;;;8.32;3.38;;;;;;;23.78;38.66;100263.25;12198113;19;20420;-79
2022/05/14 10:53:31;;;;;;;9.63;2.35;;;;;;;23.64;38.33;100252.91;12194128;19;20010;-81
2022/05/14 10:57:45;;;;;;;6.22;2.40;;;;;;;24.01;37.39;100259.16;12209465;19;20018;-79
2022/05/14 11:01:52;;;;;;;5.28;1.48;;;;;;;23.99;37.16;100253.03;12209535;19;20014;-80
2022/05/14 11:06:08;;;;;;;5.80;1.57;;;;;;;24.00;37.43;100249.03;12187350;19;20106;-81
2022/05/14 11:10:31;;;;;;;6.10;1.60;;;;;;;23.97;37.47;100246.06;12210738;19;20571;-80
2022/05/14 11:14:46;;;;;;;6.25;1.70;;;;;;;24.15;37.43;100249.72;12189796;19;20023;-81
2022/05/14 11:18:53;;;;;;;6.68;1.60;;;;;;;24.21;37.10;100238.00;12205287;19;20006;-80
2022/05/14 11:23:07;;;;;;;6.00;1.50;;;;;;;24.14;37.07;100240.47;12200007;19;20007;-80
2022/05/14 11:27:09;;;;;;;5.65;2.17;;;;;;;24.64;36.50;100239.16;12185773;19;20002;-80
2022/05/14 11:31:17;;;;;;;4.90;1.50;;;;;;;24.99;35.87;100237.91;12202643;19;20021;-80
2022/05/14 11:35:20;;;;;;;6.22;1.65;;;;;;;25.35;34.99;100230.16;12176220;19;20014;-79
2022/05/14 11:39:24;;;;;;;;;;;;;;;25.62;34.13;100224.03;12205928;19;20002;-80
2022/05/14 11:43:31;;;;;;;6.07;1.70;;;;;;;25.90;34.46;100229.19;12205996;19;19921;-81
2022/05/14 11:47:59;;;;;;;15.10;1.85;;;;;;;26.57;33.48;100231.00;12189460;19;20547;-80
2022/05/14 11:52:27;;;;;;;4.85;1.55;;;;;;;27.23;32.97;100217.97;12207361;19;20024;-80
2022/05/14 11:56:39;;;;;;;4.40;1.80;;;;;;;27.73;31.61;100220.44;12185509;19;20010;-81
2022/05/14 12:00:42;;;;;;;5.63;1.97;;;;;;;28.13;31.08;100218.84;12207524;19;19999;-81
2022/05/14 12:04:49;;;;;;;5.90;2.05;;;;;;;28.39;30.77;100224.91;12209266;19;20710;-82
2022/05/14 12:09:23;;;;;;;5.32;1.50;;;;;;;28.20;30.36;100212.56;12186413;19;20003;-80
2022/05/14 12:13:28;;;;;;;5.20;1.75;;;;;;;28.40;29.68;100217.22;12209951;19;20019;-80
2022/05/14 12:17:30;;;;;;;3.25;1.38;;;;;;;28.81;29.14;100207.50;12180714;19;20372;-81
2022/05/14 12:21:32;;;;;;;3.55;1.30;;;;;;;29.22;27.89;100205.34;12193815;19;20014;-81
2022/05/14 12:25:43;;;;;;;4.60;1.48;;;;;;;29.75;26.39;100193.69;12206236;19;20028;-81
2022/05/14 12:29:55;;;;;;;6.75;1.65;;;;;;;30.20;25.36;100192.25;12185759;19;20015;-81
2022/05/14 12:34:03;;;;;;;5.22;1.50;;;;;;;31.05;24.92;100193.13;12198783;19;20050;-81
2022/05/14 12:38:07;;;;;;;5.57;1.42;;;;;;;31.30;25.23;100178.53;12180037;19;20094;-81
2022/05/14 12:42:10;;;;;;;3.88;1.63;;;;;;;31.53;24.94;100175.66;12195928;19;20134;-81
2022/05/14 12:46:21;;;;;;;9.20;2.63;;;;;;;31.22;25.42;100180.41;12205690;19;20066;-80
2022/05/14 12:50:26;;;;;;;8.68;1.70;;;;;;;31.20;25.03;100174.28;12188769;19;20019;-80
2022/05/14 12:54:30;;;;;;;6.43;2.00;;;;;;;32.36;24.26;100177.63;12203317;19;20057;-81
2022/05/14 12:58:34;;;;;;;10.63;2.35;;;;;;;32.69;23.09;100165.41;12195525;19;20463;-81
2022/05/14 13:02:42;;;;;;;5.20;1.67;;;;;;;33.57;22.83;100167.44;12182353;19;20014;-82
2022/05/14 13:06:45;;;;;;;6.70;1.90;;;;;;;33.70;22.42;100164.25;12206980;19;20126;-82
2022/05/14 13:11:03;;;;;;;6.25;1.70;;;;;;;34.05;21.87;100151.41;12211847;19;20007;-81
2022/05/14 13:15:07;;;;;;;7.63;1.73;;;;;;;33.94;22.55;100135.00;12180275;19;20062;-82
2022/05/14 13:19:28;;;;;;;6.45;2.08;;;;;;;34.37;22.20;100129.47;12194919;19;20014;-81
2022/05/14 13:23:31;;;;;;;5.43;1.77;;;;;;;34.76;21.13;100128.75;12180657;19;20014;-82
2022/05/14 13:27:36;;;;;;;3.25;1.35;;;;;;;35.45;21.17;100121.00;12204771;19;20763;-81
2022/05/14 13:31:39;;;;;;;4.63;1.60;;;;;;;35.05;20.86;100118.19;12199405;19;20010;-82
2022/05/14 13:40:28;;;;;;;4.82;1.55;;;;;;;35.39;19.67;100114.88;12203203;19;20013;-82
2022/05/14 13:44:29;;;;;;;4.90;1.58;;;;;;;35.61;20.03;100109.97;12180350;19;20045;-83
2022/05/14 13:48:42;;;;;;;7.30;1.70;;;;;;;35.78;19.68;100114.78;12201932;19;20031;-82
2022/05/14 13:52:52;;;;;;;3.03;1.50;;;;;;;36.23;19.03;100119.97;12199626;19;20003;-82
2022/05/14 13:57:21;;;;;;;2.85;1.48;;;;;;;36.25;18.72;100111.75;12176940;19;20115;-82
2022/05/14 14:01:38;;;;;;;5.28;2.08;;;;;;;36.58;18.59;100107.50;12197641;19;20014;-82
2022/05/14 14:05:40;;;;;;;4.05;1.80;;;;;;;36.26;19.31;100099.03;12174442;19;20006;-82
2022/05/14 14:09:43;;;;;;;6.30;1.42;;;;;;;36.73;18.62;100097.53;12201269;19;20055;-82
2022/05/14 14:13:44;;;;;;;5.45;1.60;;;;;;;37.12;18.23;100093.53;12197888;19;20647;-82
2022/05/14 14:17:49;;;;;;;4.85;1.55;;;;;;;37.39;17.95;100087.97;12176605;19;20033;-81
2022/05/14 14:21:53;;;;;;;2.95;1.50;;;;;;;36.98;16.97;100093.66;12204344;19;20006;-83
2022/05/14 14:25:55;;;;;;;3.67;1.27;;;;;;;36.75;16.95;100081.97;12198853;19;20022;-82
2022/05/14 14:29:59;;;;;;;6.20;1.23;;;;;;;35.46;17.27;100069.03;12168049;19;20018;-82
2022/05/14 14:34:02;;;;;;;3.10;1.30;;;;;;;34.53;18.17;100053.88;12197587;19;20038;-82
2022/05/14 14:38:04;;;;;;;4.60;1.50;;;;;;;34.38;18.47;100055.91;12174969;19;20059;-82
2022/05/14 14:42:06;;;;;;;4.70;1.38;;;;;;;34.42;18.71;100049.00;12205876;19;20038;-81
2022/05/14 14:46:10;;;;;;;5.53;1.77;;;;;;;33.40;18.77;100050.19;12204011;19;20007;-82
2022/05/14 14:50:14;;;;;;;5.50;1.42;;;;;;;32.24;19.46;100050.41;12177453;19;20007;-82
2022/05/14 14:54:17;;;;;;;7.72;1.40;;;;;;;31.05;20.27;100056.53;12197900;19;20015;-81
2022/05/14 14:58:18;;;;;;;1.77;1.42;;;;;;;29.91;21.39;100048.75;12194298;19;20010;-82
2022/05/14 15:02:26;;;;;;;4.90;1.50;;;;;;;29.59;22.10;100048.03;12180429;19;20020;-81
2022/05/14 15:06:28;;;;;;;7.05;1.50;;;;;;;29.46;22.13;100042.50;12200179;19;20078;-81
2022/05/14 15:10:30;;;;;;;4.15;1.52;;;;;;;29.23;22.15;100033.88;12201890;19;20007;-81
2022/05/14 15:14:34;;;;;;;5.68;1.40;;;;;;;28.88;22.81;100050.03;12182725;19;20022;-79
2022/05/14 15:18:39;;;;;;;5.00;1.65;;;;;;;28.26;23.49;100043.97;12193737;19;20078;-82
2022/05/14 15:22:41;;;;;;;5.55;1.30;;;;;;;27.49;24.47;100031.66;12207208;19;20015;-82
2022/05/14 15:26:43;;;;;;;3.80;1.35;;;;;;;27.12;24.95;100036.53;12178509;19;20078;-82
2022/05/14 15:30:44;;;;;;;4.60;1.33;;;;;;;26.93;24.98;100036.34;12192246;19;20116;-82
2022/05/14 15:34:48;;;;;;;4.35;1.27;;;;;;;27.03;25.51;100033.03;12189799;19;20082;-82
2022/05/14 15:38:49;;;;;;;3.92;1.73;;;;;;;27.37;25.09;100026.06;12189755;19;20019;-82
2022/05/14 15:42:54;;;;;;;5.88;1.30;;;;;;;27.34;25.65;100023.94;12206885;19;20521;-82
2022/05/14 15:46:59;;;;;;;3.85;1.00;;;;;;;26.97;25.70;100017.47;12214536;19;20030;-82
2022/05/14 15:51:08;;;;;;;7.38;1.60;;;;;;;26.40;26.75;100015.56;12186647;19;20070;-81
2022/05/14 15:55:14;;;;;;;8.07;1.30;;;;;;;25.92;27.79;100021.59;12209445;19;20023;-81
2022/05/14 15:59:16;;;;;;;4.95;1.42;;;;;;;25.76;27.49;100014.94;12180832;19;20062;-81
2022/05/14 16:03:18;;;;;;;6.22;1.85;;;;;;;25.51;27.30;100013.97;12213231;19;20006;-84
2022/05/14 16:07:20;;;;;;;5.93;1.20;;;;;;;25.41;27.52;100015.22;12207337;19;20644;-81
2022/05/14 16:15:55;;;;;;;5.45;1.38;;;;;;;25.22;28.53;100009.22;12208521;19;20022;-81
2022/05/14 16:19:57;;;;;;;3.92;1.45;;;;;;;25.18;28.53;100008.28;12209626;19;20037;-81
2022/05/14 16:24:00;;;;;;;4.38;1.23;;;;;;;25.06;29.26;100003.34;12191715;19;20436;-80
2022/05/14 16:28:02;;;;;;;4.05;1.40;;;;;;;24.99;28.74;100009.56;12194998;19;20006;-80
2022/05/14 16:32:04;;;;;;;4.97;1.35;;;;;;;24.85;28.88;100006.16;12215306;19;20014;-80
2022/05/14 16:36:07;;;;;;;8.77;2.58;;;;;;;24.72;29.70;99998.78;12179274;19;20408;-80
2022/05/14 16:40:10;;;;;;;6.30;1.25;;;;;;;24.66;30.08;99998.16;12205825;19;20015;-80
2022/05/14 16:44:12;;;;;;;4.22;1.17;;;;;;;24.62;29.84;99994.34;12206124;19;20021;-80
2022/05/14 16:48:14;;;;;;;6.43;2.13;;;;;;;24.54;30.46;99998.06;12207761;19;20006;-81
2022/05/14 16:52:16;;;;;;;4.30;1.80;;;;;;;24.40;30.33;99995.44;12197862;19;20025;-80
2022/05/14 16:56:20;;;;;;;5.03;1.60;;;;;;;24.37;31.26;99992.47;12184866;19;20344;-80
2022/05/14 17:00:30;;;;;;;4.88;1.70;;;;;;;24.28;31.38;99995.31;12207127;19;20010;-80
2022/05/14 17:04:31;;;;;;;5.85;1.50;;;;;;;24.10;30.83;100000.19;12199308;19;20378;-80
2022/05/14 17:08:33;;;;;;;4.60;1.30;;;;;;;24.04;30.79;99987.44;12182905;19;20071;-80
2022/05/14 17:12:57;;;;;;;5.13;1.58;;;;;;;24.00;30.92;99990.09;12213111;19;20278;-80
2022/05/14 17:16:59;;;;;;;5.60;2.15;;;;;;;23.94;30.84;99985.81;12204076;19;20086;-79
2022/05/14 17:21:00;;;;;;;6.00;2.03;;;;;;;23.92;31.41;99996.59;12182438;19;20143;-79
2022/05/14 17:25:03;;;;;;;5.73;1.40;;;;;;;24.01;31.28;99991.75;12205610;19;20026;-79
2022/05/14 17:29:06;;;;;;;3.53;1.10;;;;;;;23.91;31.29;99997.72;12202126;19;20006;-79
2022/05/14 17:33:07;;;;;;;9.25;1.85;;;;;;;23.80;31.48;99993.63;12187085;19;20497;-80
2022/05/14 17:41:46;;;;;;;4.82;1.63;;;;;;;23.71;32.68;99990.00;12176396;19;20018;-79
2022/05/14 17:45:48;;;;;;;6.60;1.85;;;;;;;23.66;32.66;99994.59;12209294;19;20031;-79
2022/05/14 17:49:52;;;;;;;5.20;1.70;;;;;;;23.57;33.04;99996.59;12198040;19;20002;-79
2022/05/14 17:53:59;;;;;;;3.22;1.48;;;;;;;23.42;33.74;99991.50;12179041;19;20027;-80
2022/05/14 17:58:04;;;;;;;6.65;1.40;;;;;;;23.24;35.43;100003.91;12202072;19;20021;-80
2022/05/14 18:02:09;;;;;;;;;;;;;;;22.95;35.34;99999.72;12200744;19;20015;-80
2022/05/14 18:06:11;;;;;;;3.75;1.52;;;;;;;22.64;36.43;99997.00;12186899;19;20010;-80
2022/05/14 18:10:15;;;;;;;4.28;1.38;;;;;;;22.30;38.05;99999.34;12207835;19;20083;-81
2022/05/14 18:14:23;;;;;;;3.25;1.52;;;;;;;21.98;38.97;99994.88;12181378;19;20007;-79
2022/05/14 18:18:25;;;;;;;3.58;1.30;;;;;;;21.72;39.51;99985.47;12204567;19;20078;-79
2022/05/14 18:22:28;;;;;;;4.38;1.60;;;;;;;21.45;40.71;99980.84;12199204;19;20010;-80
2022/05/14 18:26:36;;;;;;;6.13;1.63;;;;;;;21.26;41.37;99997.78;12182458;19;20014;-80
2022/05/14 18:30:38;;;;;;;5.60;1.83;;;;;;;21.05;42.02;99997.44;12196656;19;20752;-79
2022/05/14 18:34:41;;;;;;;6.65;1.73;;;;;;;20.87;42.60;100002.03;12202868;19;20014;-81
2022/05/14 18:38:53;;;;;;;4.68;1.40;;;;;;;20.67;43.93;100001.38;12181065;19;20007;-82
2022/05/14 18:42:59;;;;;;;10.53;1.40;;;;;;;20.47;43.86;99998.97;12199274;19;20028;-82
2022/05/14 18:47:00;;;;;;;5.05;1.67;;;;;;;20.27;44.51;100014.19;12204809;19;20002;-81
2022/05/14 18:51:03;;;;;;;4.07;1.63;;;;;;;20.07;45.03;100011.75;12177021;19;20567;-81
2022/05/14 18:55:06;;;;;;;3.90;1.77;;;;;;;19.86;45.94;100020.53;12204294;19;20102;-81
2022/05/14 18:59:08;;;;;;;;;;;;;;;19.59;47.18;100022.06;12203662;19;20007;-81
2022/05/14 19:03:10;;;;;;;4.80;1.70;;;;;;;19.35;46.68;100026.94;12182858;19;20356;-82
2022/05/14 19:07:19;;;;;;;4.57;1.55;;;;;;;19.15;47.19;100030.03;12196288;19;20644;-81
2022/05/14 19:11:23;;;;;;;5.72;1.60;;;;;;;18.94;47.52;100038.69;12194584;19;20365;-82
2022/05/14 19:15:25;;;;;;;5.68;1.30;;;;;;;18.76;48.25;100037.53;12213126;19;20010;-82
2022/05/14 19:19:27;;;;;;;5.10;1.40;;;;;;;18.59;48.22;100035.22;12208885;19;20007;-81
2022/05/14 19:23:29;;;;;;;3.40;1.33;;;;;;;18.44;48.80;100046.53;12194470;19;20014;-83
2022/05/14 19:27:31;;;;;;;4.68;1.63;;;;;;;18.30;48.88;100051.19;12222170;19;20213;-82